logo
Search for airport 
image banner adimage banner adimage banner ad
image banner ad

LOLK - Ried-Kirchheim

Located in District Ried, Austria

ICAO - LOLK, IATA -

Data provided by Airmate  

General information

Coordinates: N48°12'45" E13°20'42"
Elevation is 1378 feet MSL.
 
View others Airports in Upper Austria

Operational data

Special qualification required
Current time UTC:
Current local time:
Weather at : LOWS - Salzburg ( 53 km )
METAR: LOWS 171920Z 24003KT 200V280 9999 -RA FEW005 SCT012 BKN020 04/03 Q1010 TEMPO 29010KT RA BKN014
TAF: TAF LOWS 171715Z 1718/1818 31006KT 9999 SCT025 BKN050 TX08/1814Z TN03/1802Z TEMPO 1718/1724 30012KT 4500 SHRA FEW008 BKN012 PROB30 1719/1723 2500 SHRASN BKN008 TEMPO 1800/1810 -SHRA PROB30 1800/1808 4500 -RADZ BKN012 TEMPO 1810/1818 32012KT SHRA SCT020CB BKN035 PROB40 TEMPO 1814/1818 33015G25KT 4000 TSRA
View NOTAMs / SUP AIP / TFR affecting this airport [VIEW]
Communications frequencies: [VIEW]

Runways:

RWY identifierQFULength (ft)Width (ft)SurfaceLDA (ft)
12243859ASPHALT
30243859ASPHALT

Airport contact information

Address: District Ried Austria

Other aviation service providers

Aviation club (not for profit)

Sportfliegerclub Ried

Sportfliegerclub Ried
motorflug@sfc-ried.at+43775286861
+43(650)3740162

Satellite view of LOLK